Holden Beach, NC

10:43 PM EST on February 22, 2017 (GMT -0500)
Supply | | Change Station

Elev 0 ft 33.91 °N, 78.35 °W | Updated 2 minutes ago

Partly Cloudy
Partly Cloudy
61.9 °F
Feels Like 61.9 °F
N
1.2
Wind Variable Wind from NW
Gusts 3.7 mph

Today
High -- | Low -- °F
--% Chance of Precip.
Yesterday
High -- | Low -- °F
Precip. -- in
Pressure 29.93 in
Visibility 10.0 miles
Clouds Clear
Dew Point 55 °F
Humidity 79%
Rainfall 0.00 in
Snow Depth Not available.
6:49 AM 6:03 PM
Waning Crescent, 13% visible
METAR KSUT 230335Z AUTO 00000KT 10SM CLR 15/12 A2993 RMK AO2 T01510122
Pressure 29.93 in
Visibility 10.0 miles
Clouds Clear
Dew Point 55 °F
Humidity 79%
Rainfall 0.00 in
Snow Depth Not available.
6:49 AM 6:03 PM
Waning Crescent, 13% visible
METAR KSUT 230335Z AUTO 00000KT 10SM CLR 15/12 A2993 RMK AO2 T01510122

Get Your Daily Forecast Email!

Thanks for signing up!

Be on the lookout for a verification email in your inbox.

You'll start receiving the daily forecast at 8 AM.

×

10-Day Weather Forecast

Almanac

Astronomy

Feb. 22, 2017 Rise Set
Actual Time
Civil Twilight
Nautical Twilight
Astronomical Twilight
Moon
Length of Visible Light
Length of Day
Tomorrow will be .
, % of the Moon is Illuminated

Today's Extremes

State Highs State Lows

Community

WunderPhotos

Upload Photos

1,962,540 photos uploaded!

WunderBlog® & News

Nearby

Air Quality

  Air Quality AQ Index Pollutant
Not available.

Snow Depth

Station Depth Elevation

Earthquake Activity

City Distance Mag. Time & Date
Minimum magnitude displayed is 2.5.

Coastal Water Temperatures

Place Temperature

Stations

Nearby Weather Stations

Station Location Temp. Windchill Dew Point Humidity Wind Precip. Elev Updated Type
                   

Watches & Warnings

There are currently no watches in effect.